createdAt,value
2022-12-19T00:01:11.012Z,100689.00
2022-12-19T00:03:43.982Z,100703.00
2022-12-19T00:06:11.278Z,100707.00
2022-12-19T00:08:45.117Z,100671.00
2022-12-19T00:11:12.726Z,100705.00
2022-12-19T00:13:45.936Z,100688.00
2022-12-19T00:16:21.914Z,100675.00
2022-12-19T00:18:55.982Z,100702.00
2022-12-19T00:21:25.446Z,100686.00
2022-12-19T00:23:59.232Z,100679.00
2022-12-19T00:26:41.153Z,100667.00
2022-12-19T00:29:13.863Z,100682.00
2022-12-19T00:31:48.060Z,100691.00
2022-12-19T00:34:15.336Z,100716.00
2022-12-19T00:36:49.001Z,100704.00
2022-12-19T00:39:16.016Z,100688.00
2022-12-19T00:41:49.948Z,100660.00
2022-12-19T00:44:16.916Z,100687.00
2022-12-19T00:46:52.599Z,100679.00
2022-12-19T00:49:21.084Z,100679.00
2022-12-19T00:51:54.171Z,100716.00
2022-12-19T00:54:28.037Z,100703.00
2022-12-19T00:57:01.973Z,100698.00
2022-12-19T00:59:34.946Z,100683.00
2022-12-19T01:02:08.152Z,100679.00
2022-12-19T01:04:42.212Z,100673.00
2022-12-19T01:07:09.676Z,100690.00
2022-12-19T01:09:42.933Z,100682.00
2022-12-19T01:12:17.964Z,100676.00
2022-12-19T01:14:45.008Z,100682.00
2022-12-19T01:17:19.142Z,100676.00
2022-12-19T01:19:46.154Z,100697.00
2022-12-19T01:22:19.981Z,100685.00
2022-12-19T01:24:54.629Z,100701.00
2022-12-19T01:27:27.954Z,100704.00
2022-12-19T01:30:01.002Z,100686.00
2022-12-19T01:32:33.996Z,100679.00
2022-12-19T01:35:01.838Z,100679.00
2022-12-19T01:37:28.856Z,100678.00
2022-12-19T01:40:01.976Z,100651.00
2022-12-19T01:42:37.086Z,100685.00
2022-12-19T01:45:17.269Z,100690.00
2022-12-19T01:47:57.260Z,100701.00
2022-12-19T01:50:41.807Z,100671.00
2022-12-19T01:53:21.961Z,100697.00
2022-12-19T01:55:55.969Z,100677.00
2022-12-19T01:58:22.961Z,100689.00
2022-12-19T02:00:57.018Z,100648.00
2022-12-19T02:03:31.474Z,100691.00
2022-12-19T02:06:04.980Z,100692.00
2022-12-19T02:08:38.238Z,100687.00
2022-12-19T02:11:05.717Z,100660.00
2022-12-19T02:13:32.710Z,100672.00
2022-12-19T02:16:47.039Z,100693.00
2022-12-19T02:19:22.720Z,100699.00
2022-12-19T02:22:05.969Z,100680.00
2022-12-19T02:24:44.980Z,100679.00
2022-12-19T02:27:51.799Z,100690.00
2022-12-19T02:31:01.953Z,100677.00
2022-12-19T02:33:54.405Z,100654.00
2022-12-19T02:36:44.428Z,100662.00
2022-12-19T02:39:46.928Z,100668.00
2022-12-19T02:42:27.424Z,100670.00
2022-12-19T02:45:03.606Z,100641.00
2022-12-19T02:47:31.609Z,100678.00
2022-12-19T02:50:05.340Z,100666.00
2022-12-19T02:52:32.181Z,100676.00
2022-12-19T02:55:18.008Z,100673.00
2022-12-19T02:58:05.042Z,100666.00
2022-12-19T03:00:37.997Z,100673.00
2022-12-19T03:03:19.615Z,100692.00
2022-12-19T03:06:15.026Z,100699.00
2022-12-19T03:09:03.070Z,100687.00
2022-12-19T03:11:42.004Z,100690.00
2022-12-19T03:14:14.931Z,100667.00
2022-12-19T03:16:48.112Z,100662.00
2022-12-19T03:19:21.981Z,100677.00
2022-12-19T03:21:48.983Z,100653.00
2022-12-19T03:24:23.040Z,100677.00
2022-12-19T03:27:10.376Z,100671.00
2022-12-19T03:29:58.037Z,100670.00
2022-12-19T03:32:24.884Z,100677.00
2022-12-19T03:35:10.055Z,100695.00
2022-12-19T03:37:39.108Z,100680.00
2022-12-19T03:40:20.010Z,100685.00
2022-12-19T03:42:55.015Z,100689.00
2022-12-19T03:46:00.127Z,100687.00
2022-12-19T03:48:43.534Z,100683.00
2022-12-19T03:51:59.253Z,100678.00
2022-12-19T03:54:29.473Z,100673.00
2022-12-19T03:57:26.050Z,100682.00
2022-12-19T04:00:00.049Z,100685.00
2022-12-19T04:02:33.106Z,100681.00
2022-12-19T04:05:10.010Z,100681.00
2022-12-19T04:07:39.930Z,100681.00
2022-12-19T04:10:19.015Z,100671.00
2022-12-19T04:12:56.192Z,100684.00
2022-12-19T04:15:40.118Z,100697.00
2022-12-19T04:18:07.127Z,100687.00
2022-12-19T04:20:34.842Z,100703.00
2022-12-19T04:23:32.048Z,100696.00
2022-12-19T04:26:01.962Z,100687.00
2022-12-19T04:28:55.077Z,100695.00
2022-12-19T04:31:28.128Z,100699.00
2022-12-19T04:33:55.050Z,100703.00
2022-12-19T04:36:22.080Z,100706.00
2022-12-19T04:38:55.073Z,100705.00
2022-12-19T04:41:22.056Z,100708.00
2022-12-19T04:43:55.074Z,100699.00
2022-12-19T04:46:22.078Z,100701.00
2022-12-19T04:53:29.769Z,100705.00
2022-12-19T04:57:15.745Z,100707.00
2022-12-19T05:00:47.160Z,100675.00
2022-12-19T05:03:14.121Z,100717.00
2022-12-19T05:05:47.151Z,100685.00
2022-12-19T05:08:14.075Z,100710.00
2022-12-19T05:10:47.099Z,100690.00
2022-12-19T05:13:14.028Z,100694.00
2022-12-19T05:15:48.092Z,100685.00
2022-12-19T05:18:15.006Z,100712.00
2022-12-19T05:20:49.114Z,100680.00
2022-12-19T05:23:23.026Z,100703.00
2022-12-19T05:25:50.304Z,100707.00
2022-12-19T05:28:24.056Z,100694.00
2022-12-19T05:30:52.598Z,100685.00
2022-12-19T05:33:36.484Z,100691.00
2022-12-19T05:36:10.101Z,100699.00
2022-12-19T05:38:37.169Z,100704.00
2022-12-19T05:41:19.154Z,100672.00
2022-12-19T05:43:49.468Z,100693.00
2022-12-19T05:46:26.138Z,100705.00
2022-12-19T05:48:53.176Z,100685.00
2022-12-19T05:51:27.067Z,100680.00
2022-12-19T05:54:00.130Z,100689.00
2022-12-19T05:56:27.204Z,100688.00
2022-12-19T05:59:01.092Z,100702.00
2022-12-19T06:01:35.169Z,100711.00
2022-12-19T06:04:09.136Z,100692.00
2022-12-19T06:06:36.064Z,100691.00
2022-12-19T06:09:02.918Z,100668.00
2022-12-19T06:11:36.131Z,100666.00
2022-12-19T06:14:03.019Z,100689.00
2022-12-19T06:16:36.100Z,100697.00
2022-12-19T06:19:02.974Z,100700.00
2022-12-19T06:21:39.762Z,100698.00
2022-12-19T06:24:15.380Z,100692.00
2022-12-19T06:26:49.175Z,100669.00
2022-12-19T06:29:23.077Z,100695.00
2022-12-19T06:31:50.186Z,100693.00
2022-12-19T06:34:47.224Z,100688.00
2022-12-19T06:37:12.049Z,100674.00
2022-12-19T06:39:45.127Z,100677.00
2022-12-19T06:42:11.966Z,100698.00
2022-12-19T06:44:45.097Z,100699.00
2022-12-19T06:47:12.038Z,100676.00
2022-12-19T06:49:45.188Z,100666.00
2022-12-19T06:52:18.128Z,100679.00
2022-12-19T06:54:45.033Z,100684.00
2022-12-19T06:57:11.960Z,100701.00
2022-12-19T06:59:45.078Z,100709.00
2022-12-19T07:02:18.195Z,100699.00
2022-12-19T07:04:58.153Z,100714.00
2022-12-19T07:07:25.058Z,100714.00
2022-12-19T07:09:58.145Z,100689.00
2022-12-19T07:12:31.281Z,100703.00
2022-12-19T07:14:58.201Z,100703.00
2022-12-19T07:17:25.292Z,100684.00
2022-12-19T07:20:00.101Z,100706.00
2022-12-19T07:22:30.915Z,100695.00
2022-12-19T07:25:04.090Z,100704.00
2022-12-19T07:27:35.675Z,100691.00
2022-12-19T07:30:11.135Z,100683.00
2022-12-19T07:32:38.182Z,100708.00
2022-12-19T07:35:13.133Z,100682.00
2022-12-19T07:37:40.566Z,100701.00
2022-12-19T07:40:15.092Z,100698.00
2022-12-19T07:42:42.002Z,100699.00
2022-12-19T07:45:09.277Z,100700.00
2022-12-19T07:47:43.089Z,100665.00
2022-12-19T07:50:10.285Z,100707.00
2022-12-19T07:52:44.184Z,100710.00
2022-12-19T07:55:11.284Z,100703.00
2022-12-19T07:57:38.275Z,100711.00
2022-12-19T08:00:13.087Z,100723.00
2022-12-19T08:02:40.204Z,100729.00
2022-12-19T08:05:14.136Z,100701.00
2022-12-19T08:07:41.375Z,100698.00
2022-12-19T08:10:16.178Z,100729.00
2022-12-19T08:12:43.118Z,100706.00
2022-12-19T08:15:17.123Z,100712.00
2022-12-19T08:17:44.199Z,100724.00
2022-12-19T08:20:18.134Z,100721.00
2022-12-19T08:22:51.201Z,100700.00
2022-12-19T08:25:18.076Z,100718.00
2022-12-19T08:27:51.190Z,100714.00
2022-12-19T08:30:18.280Z,100724.00
2022-12-19T08:32:52.159Z,100712.00
2022-12-19T08:35:19.144Z,100732.00
2022-12-19T08:37:52.125Z,100727.00
2022-12-19T08:40:19.157Z,100710.00
2022-12-19T08:42:46.076Z,100683.00
2022-12-19T08:45:20.147Z,100727.00
2022-12-19T08:47:47.072Z,100726.00
2022-12-19T08:50:20.135Z,100724.00
2022-12-19T08:52:53.882Z,100727.00
2022-12-19T08:55:27.320Z,100715.00
2022-12-19T08:58:08.611Z,100675.00
2022-12-19T09:00:35.792Z,100687.00
2022-12-19T09:03:03.591Z,100729.00
2022-12-19T09:06:01.518Z,100695.00
2022-12-19T09:08:26.581Z,100698.00
2022-12-19T09:11:07.243Z,100703.00
2022-12-19T09:13:34.954Z,100723.00
2022-12-19T09:16:22.440Z,100712.00
2022-12-19T09:18:54.888Z,100685.00
2022-12-19T09:21:30.275Z,100704.00
2022-12-19T09:24:05.370Z,100692.00
2022-12-19T09:26:41.301Z,100688.00
2022-12-19T09:29:19.823Z,100705.00
2022-12-19T09:31:56.156Z,100701.00
2022-12-19T09:34:37.553Z,100701.00
2022-12-19T09:37:17.307Z,100682.00
2022-12-19T09:39:54.324Z,100678.00
2022-12-19T09:42:48.228Z,100724.00
2022-12-19T09:45:32.625Z,100687.00
2022-12-19T09:48:07.655Z,100718.00
2022-12-19T09:50:50.982Z,100697.00
2022-12-19T09:53:34.320Z,100692.00
2022-12-19T09:56:12.898Z,100689.00
2022-12-19T09:58:50.334Z,100685.00
2022-12-19T10:01:24.561Z,100704.00
2022-12-19T10:04:12.287Z,100666.00
2022-12-19T10:07:18.409Z,100681.00
2022-12-19T10:11:13.994Z,100666.00
2022-12-19T10:12:51.391Z,100705.00
2022-12-19T10:16:00.854Z,100701.00
2022-12-19T10:19:01.385Z,100682.00
2022-12-19T10:22:17.124Z,100675.00
2022-12-19T10:25:09.117Z,100717.00
2022-12-19T10:28:07.173Z,100684.00
2022-12-19T10:30:38.566Z,100702.00
2022-12-19T10:33:39.246Z,100696.00
2022-12-19T10:36:17.197Z,100685.00
2022-12-19T10:39:12.450Z,100684.00
2022-12-19T10:41:48.218Z,100672.00
2022-12-19T10:44:15.139Z,100652.00
2022-12-19T10:46:55.281Z,100664.00
2022-12-19T10:49:27.942Z,100666.00
2022-12-19T10:52:07.271Z,100656.00
2022-12-19T10:54:36.979Z,100654.00
2022-12-19T10:57:40.210Z,100651.00
2022-12-19T11:00:17.836Z,100646.00
2022-12-19T11:02:56.397Z,100643.00
2022-12-19T11:05:31.218Z,100636.00
2022-12-19T11:08:07.185Z,100627.00
2022-12-19T11:14:23.320Z,100641.00
2022-12-19T11:19:44.453Z,100639.00
2022-12-19T11:24:39.465Z,100636.00
2022-12-19T11:29:24.949Z,100617.00
2022-12-19T11:29:36.341Z,100627.00
2022-12-19T11:29:43.288Z,100614.00
2022-12-19T11:30:26.151Z,100611.00
2022-12-19T11:34:20.878Z,100604.00
2022-12-19T11:37:25.281Z,100609.00
2022-12-19T11:40:02.630Z,100598.00
2022-12-19T11:43:41.530Z,100602.00
2022-12-19T11:46:21.533Z,100599.00
2022-12-19T11:49:20.211Z,100603.00
2022-12-19T11:52:29.564Z,100596.00
2022-12-19T11:55:27.201Z,100595.00
2022-12-19T11:57:54.163Z,100596.00
2022-12-19T12:00:30.247Z,100599.00
2022-12-19T12:04:01.953Z,100593.00
2022-12-19T12:06:34.023Z,100596.00
2022-12-19T12:11:13.057Z,100596.00
2022-12-19T12:20:14.998Z,100589.00
2022-12-19T12:28:09.712Z,100573.00
2022-12-19T12:31:10.434Z,100582.00
2022-12-19T12:31:27.902Z,100577.00
2022-12-19T12:31:53.293Z,100575.00
2022-12-19T12:32:03.520Z,100570.00
2022-12-19T12:35:50.038Z,100567.00
2022-12-19T12:38:36.960Z,100560.00
2022-12-19T12:41:30.253Z,100561.00
2022-12-19T12:44:16.280Z,100562.00
2022-12-19T12:47:06.611Z,100556.00
2022-12-19T12:49:55.271Z,100556.00
2022-12-19T12:52:46.791Z,100548.00
2022-12-19T12:55:36.254Z,100554.00
2022-12-19T12:58:03.323Z,100553.00
2022-12-19T13:00:41.258Z,100546.00
2022-12-19T13:03:17.270Z,100547.00
2022-12-19T13:05:53.242Z,100548.00
2022-12-19T13:08:39.792Z,100535.00
2022-12-19T13:11:26.233Z,100548.00
2022-12-19T13:14:04.299Z,100539.00
2022-12-19T13:16:58.304Z,100540.00
2022-12-19T13:19:29.084Z,100534.00
2022-12-19T13:22:12.317Z,100539.00
2022-12-19T13:24:50.326Z,100536.00
2022-12-19T13:27:26.325Z,100532.00
2022-12-19T13:30:11.681Z,100538.00
2022-12-19T13:32:48.296Z,100532.00
2022-12-19T13:35:56.505Z,100528.00
2022-12-19T13:39:49.600Z,100529.00
2022-12-19T13:41:31.133Z,100509.00
2022-12-19T13:44:06.293Z,100533.00
2022-12-19T13:46:45.699Z,100532.00
2022-12-19T13:49:36.259Z,100531.00
2022-12-19T13:52:04.368Z,100517.00
2022-12-19T13:54:56.328Z,100524.00
2022-12-19T13:57:28.675Z,100524.00
2022-12-19T14:00:07.257Z,100521.00
2022-12-19T14:02:48.459Z,100536.00
2022-12-19T14:06:17.832Z,100526.00
2022-12-19T14:08:31.300Z,100528.00
2022-12-19T14:11:38.340Z,100522.00
2022-12-19T14:14:10.123Z,100530.00
2022-12-19T14:16:44.544Z,100527.00
2022-12-19T14:19:33.301Z,100535.00
2022-12-19T14:22:20.782Z,100534.00
2022-12-19T14:26:14.495Z,100534.00
2022-12-19T14:28:29.388Z,100536.00
2022-12-19T14:31:00.705Z,100520.00
2022-12-19T14:34:11.083Z,100529.00
2022-12-19T14:36:40.020Z,100525.00
2022-12-19T14:39:26.547Z,100510.00
2022-12-19T14:42:13.252Z,100510.00
2022-12-19T14:52:34.560Z,100537.00
2022-12-19T14:54:15.505Z,100522.00
2022-12-19T14:54:23.269Z,100507.00
2022-12-19T14:54:25.032Z,100520.00
2022-12-19T14:56:47.406Z,100500.00
2022-12-19T14:59:36.477Z,100541.00
2022-12-19T15:02:13.362Z,100534.00
2022-12-19T15:05:15.128Z,100526.00
2022-12-19T15:07:50.352Z,100532.00
2022-12-19T15:11:05.550Z,100511.00
2022-12-19T15:14:52.741Z,100547.00
2022-12-19T15:16:31.601Z,100536.00
2022-12-19T15:19:06.417Z,100532.00
2022-12-19T15:21:33.408Z,100522.00
2022-12-19T15:24:06.397Z,100523.00
2022-12-19T15:26:35.493Z,100541.00
2022-12-19T15:29:09.377Z,100504.00
2022-12-19T15:31:41.529Z,100509.00
2022-12-19T15:34:35.868Z,100533.00
2022-12-19T15:37:11.395Z,100526.00
2022-12-19T15:39:38.627Z,100530.00
2022-12-19T15:42:12.333Z,100527.00
2022-12-19T15:44:42.317Z,100537.00
2022-12-19T15:47:43.393Z,100538.00
2022-12-19T15:50:20.464Z,100539.00
2022-12-19T15:52:54.432Z,100529.00
2022-12-19T15:55:21.474Z,100525.00
2022-12-19T15:58:10.413Z,100500.00
2022-12-19T16:00:55.775Z,100513.00
2022-12-19T16:03:29.713Z,100526.00
2022-12-19T16:05:56.908Z,100534.00
2022-12-19T16:08:24.519Z,100524.00
2022-12-19T16:11:02.597Z,100515.00
2022-12-19T16:13:31.405Z,100485.00
2022-12-19T16:16:11.137Z,100487.00
2022-12-19T16:18:42.203Z,100505.00
2022-12-19T16:21:33.904Z,100491.00
2022-12-19T16:24:01.307Z,100520.00
2022-12-19T16:26:42.379Z,100511.00
2022-12-19T16:29:42.104Z,100516.00
2022-12-19T16:32:19.440Z,100501.00
2022-12-19T16:34:53.469Z,100531.00
2022-12-19T16:37:20.556Z,100534.00
2022-12-19T16:39:54.451Z,100528.00
2022-12-19T16:42:21.382Z,100499.00
2022-12-19T16:44:48.531Z,100530.00
2022-12-19T16:47:24.547Z,100539.00
2022-12-19T16:49:51.512Z,100514.00
2022-12-19T16:52:18.377Z,100511.00
2022-12-19T16:54:51.404Z,100509.00
2022-12-19T16:57:20.079Z,100541.00
2022-12-19T16:59:53.348Z,100498.00
2022-12-19T17:03:21.531Z,100541.00
2022-12-19T17:05:48.546Z,100547.00
2022-12-19T17:08:22.405Z,100543.00
2022-12-19T17:10:49.304Z,100529.00
2022-12-19T17:13:22.344Z,100543.00
2022-12-19T17:15:56.097Z,100550.00
2022-12-19T17:18:39.421Z,100553.00
2022-12-19T17:21:06.483Z,100562.00
2022-12-19T17:23:40.411Z,100555.00
2022-12-19T17:26:09.448Z,100540.00
2022-12-19T17:28:46.395Z,100554.00
2022-12-19T17:31:28.757Z,100556.00
2022-12-19T17:33:56.286Z,100554.00
2022-12-19T17:36:34.802Z,100541.00
2022-12-19T17:39:31.443Z,100563.00
2022-12-19T17:42:09.918Z,100566.00
2022-12-19T17:44:43.393Z,100552.00
2022-12-19T17:47:19.800Z,100546.00
2022-12-19T17:49:53.402Z,100560.00
2022-12-19T17:52:26.383Z,100558.00
2022-12-19T17:54:59.408Z,100534.00
2022-12-19T17:57:26.371Z,100539.00
2022-12-19T17:59:59.449Z,100559.00
2022-12-19T18:02:26.629Z,100542.00
2022-12-19T18:04:53.785Z,100539.00
2022-12-19T18:07:27.410Z,100558.00
2022-12-19T18:09:54.308Z,100554.00
2022-12-19T18:12:28.430Z,100551.00
2022-12-19T18:15:01.476Z,100552.00
2022-12-19T18:17:28.466Z,100558.00
2022-12-19T18:20:02.417Z,100550.00
2022-12-19T18:22:35.448Z,100543.00
2022-12-19T18:25:02.981Z,100543.00
2022-12-19T18:27:36.447Z,100551.00
2022-12-19T18:30:04.130Z,100548.00
2022-12-19T18:32:37.421Z,100541.00
2022-12-19T18:35:04.850Z,100545.00
2022-12-19T18:37:38.372Z,100539.00
2022-12-19T18:40:20.993Z,100539.00
2022-12-19T18:42:56.382Z,100551.00
2022-12-19T18:45:28.052Z,100542.00
2022-12-19T18:48:03.447Z,100547.00
2022-12-19T18:50:30.416Z,100534.00
2022-12-19T18:53:03.430Z,100533.00
2022-12-19T18:55:30.381Z,100541.00
2022-12-19T18:57:57.285Z,100524.00
2022-12-19T19:00:32.435Z,100534.00
2022-12-19T19:03:08.602Z,100563.00
2022-12-19T19:05:36.171Z,100544.00
2022-12-19T19:08:21.451Z,100544.00
2022-12-19T19:10:49.792Z,100500.00
2022-12-19T19:13:17.531Z,100542.00
2022-12-19T19:16:00.503Z,100548.00
2022-12-19T19:18:31.623Z,100537.00
2022-12-19T19:21:05.414Z,100537.00
2022-12-19T19:23:39.374Z,100506.00
2022-12-19T19:26:13.459Z,100542.00
2022-12-19T19:28:40.476Z,100513.00
2022-12-19T19:31:16.611Z,100548.00
2022-12-19T19:33:47.218Z,100528.00
2022-12-19T19:36:24.498Z,100537.00
2022-12-19T19:38:54.165Z,100541.00
2022-12-19T19:41:28.463Z,100504.00
2022-12-19T19:43:58.892Z,100531.00
2022-12-19T19:46:33.648Z,100531.00
2022-12-19T19:49:00.607Z,100526.00
2022-12-19T19:51:35.668Z,100525.00
2022-12-19T19:54:02.632Z,100531.00
2022-12-19T19:56:36.509Z,100520.00
2022-12-19T19:59:03.518Z,100545.00
2022-12-19T20:01:36.645Z,100527.00
2022-12-19T20:04:03.879Z,100511.00
2022-12-19T20:06:37.513Z,100551.00
2022-12-19T20:09:11.411Z,100528.00
2022-12-19T20:11:38.295Z,100534.00
2022-12-19T20:14:11.460Z,100481.00
2022-12-19T20:16:38.448Z,100530.00
2022-12-19T20:19:05.429Z,100532.00
2022-12-19T20:21:38.445Z,100528.00
2022-12-19T20:24:05.713Z,100529.00
2022-12-19T20:26:39.461Z,100535.00
2022-12-19T20:29:06.457Z,100518.00
2022-12-19T20:31:33.440Z,100514.00
2022-12-19T20:34:07.528Z,100529.00
2022-12-19T20:36:34.510Z,100524.00
2022-12-19T20:39:01.471Z,100532.00
2022-12-19T20:41:34.475Z,100540.00
2022-12-19T20:44:08.465Z,100522.00
2022-12-19T20:46:41.542Z,100538.00
2022-12-19T20:49:08.541Z,100531.00
2022-12-19T20:51:41.507Z,100530.00
2022-12-19T20:54:09.168Z,100529.00
2022-12-19T20:56:42.527Z,100530.00
2022-12-19T20:59:09.584Z,100526.00
2022-12-19T21:01:43.588Z,100526.00
2022-12-19T21:04:17.773Z,100523.00
2022-12-19T21:06:44.833Z,100532.00
2022-12-19T21:09:18.515Z,100530.00
2022-12-19T21:11:51.457Z,100537.00
2022-12-19T21:14:18.342Z,100519.00
2022-12-19T21:16:51.480Z,100511.00
2022-12-19T21:19:18.405Z,100529.00
2022-12-19T21:21:52.503Z,100537.00
2022-12-19T21:24:19.524Z,100532.00
2022-12-19T21:26:46.473Z,100515.00
2022-12-19T21:29:20.508Z,100529.00
2022-12-19T21:31:53.514Z,100509.00
2022-12-19T21:34:20.429Z,100523.00
2022-12-19T21:36:53.494Z,100498.00
2022-12-19T21:39:20.422Z,100492.00
2022-12-19T21:41:53.562Z,100486.00
2022-12-19T21:44:26.567Z,100501.00
2022-12-19T21:46:53.598Z,100503.00
2022-12-19T21:49:27.525Z,100491.00
2022-12-19T21:51:54.436Z,100495.00
2022-12-19T21:54:27.480Z,100505.00
2022-12-19T21:56:54.436Z,100494.00
2022-12-19T21:59:27.464Z,100467.00
2022-12-19T22:02:01.376Z,100500.00
2022-12-19T22:04:35.545Z,100454.00
2022-12-19T22:07:04.548Z,100496.00
2022-12-19T22:09:31.677Z,100490.00
2022-12-19T22:12:05.486Z,100489.00
2022-12-19T22:14:32.360Z,100503.00
2022-12-19T22:17:05.550Z,100485.00
2022-12-19T22:19:32.537Z,100494.00
2022-12-19T22:21:59.465Z,100456.00
2022-12-19T22:24:32.552Z,100482.00
2022-12-19T22:26:59.476Z,100503.00
2022-12-19T22:29:32.549Z,100495.00
2022-12-19T22:32:05.588Z,100490.00
2022-12-19T22:34:32.483Z,100504.00
2022-12-19T22:37:05.589Z,100481.00
2022-12-19T22:39:32.571Z,100476.00
2022-12-19T22:41:59.507Z,100486.00
2022-12-19T22:44:32.540Z,100459.00
2022-12-19T22:46:59.395Z,100484.00
2022-12-19T22:49:32.491Z,100469.00
2022-12-19T22:51:59.465Z,100479.00
2022-12-19T22:54:32.538Z,100474.00
2022-12-19T22:56:59.481Z,100448.00
2022-12-19T22:59:32.573Z,100474.00
2022-12-19T23:02:06.306Z,100470.00
2022-12-19T23:04:39.519Z,100468.00
2022-12-19T23:07:06.377Z,100477.00
2022-12-19T23:09:39.582Z,100478.00
2022-12-19T23:12:13.529Z,100475.00
2022-12-19T23:14:40.916Z,100482.00
2022-12-19T23:17:07.952Z,100477.00
2022-12-19T23:19:41.862Z,100476.00
2022-12-19T23:22:08.960Z,100479.00
2022-12-19T23:27:50.300Z,100435.00
2022-12-19T23:30:24.697Z,100443.00
2022-12-19T23:33:10.230Z,100442.00
2022-12-19T23:38:37.788Z,100438.00
2022-12-19T23:41:14.572Z,100446.00
2022-12-19T23:47:12.580Z,100429.00
2022-12-19T23:57:20.910Z,100466.00
